TAF KMRB
KMRB 072338Z 0800/0824 08003KT P6SM BKN250 FM081000 11003KT P6SM BKN080 OVC130 FM081400 16004KT P6SM BKN080 BKN130 FM081900 29008G16KT P6SM BKN050 BKN130=
METAR KMRB
WC KMRB
WS KMRB
WV KMRB